Time;durP1;ratioP1;P1;durP2;ratioP2;P2;SDS_P1;SDS_P2;PMS_P1;PMS_P2;Temp;Humidity;BMP_temperature;BMP_pressure;BME280_temperature;BME280_humidity;BME280_pressure;Samples;Min_cycle;Max_cycle;Signal;HPM_P1;HPM_P2
2023/03/28 00:01:52;;;;;;;11.45;1.67;;;3.40;99.90;;;;;;5096918;28;20622;-73
2023/03/28 00:04:21;;;;;;;11.05;3.08;;;3.30;99.90;;;;;;5100490;28;20052;-73
2023/03/28 00:06:48;;;;;;;15.20;2.00;;;3.30;99.90;;;;;;5116287;28;20570;-72
2023/03/28 00:09:13;;;;;;;9.27;1.63;;;3.30;99.90;;;;;;5115593;28;20862;-72
2023/03/28 00:11:39;;;;;;;12.60;2.10;;;3.30;99.90;;;;;;5116338;28;20016;-72
2023/03/28 00:14:07;;;;;;;9.00;1.70;;;3.20;99.90;;;;;;5115520;28;20023;-71
2023/03/28 00:16:36;;;;;;;14.30;2.15;;;3.20;99.90;;;;;;5110070;28;20026;-72
2023/03/28 00:19:04;;;;;;;14.52;2.20;;;3.20;99.90;;;;;;5113633;28;20034;-72
2023/03/28 00:21:36;;;;;;;10.98;2.03;;;3.20;99.90;;;;;;5107452;28;20047;-73
2023/03/28 00:24:03;;;;;;;8.70;1.95;;;3.20;99.90;;;;;;5106459;28;20094;-73
2023/03/28 00:26:33;;;;;;;6.97;1.73;;;3.20;99.90;;;;;;5096817;28;20039;-72
2023/03/28 00:29:00;;;;;;;10.02;2.13;;;3.20;99.90;;;;;;5106172;28;20032;-72
2023/03/28 00:31:26;;;;;;;9.80;1.83;;;3.20;99.90;;;;;;5115392;28;20083;-73
2023/03/28 00:33:52;;;;;;;7.47;1.85;;;3.20;99.90;;;;;;5106522;28;20034;-73
2023/03/28 00:36:22;;;;;;;11.48;2.05;;;3.20;99.90;;;;;;5112293;28;20019;-73
2023/03/28 00:38:52;;;;;;;7.85;1.77;;;3.10;99.90;;;;;;5103151;28;20032;-73
2023/03/28 00:41:20;;;;;;;10.18;2.10;;;3.10;99.90;;;;;;5094120;28;20017;-73
2023/03/28 00:43:48;;;;;;;10.88;1.98;;;3.20;99.90;;;;;;5106684;28;20041;-73
2023/03/28 00:46:22;;;;;;;10.15;2.22;;;3.20;99.90;;;;;;5106487;28;20032;-73
2023/03/28 00:48:57;;;;;;;11.43;2.20;;;3.20;99.90;;;;;;5095999;28;20034;-72
2023/03/28 00:51:28;;;;;;;9.32;1.63;;;3.20;99.90;;;;;;5103038;28;20197;-72
2023/03/28 00:53:56;;;;;;;13.10;2.08;;;3.20;99.90;;;;;;5114792;28;20036;-72
2023/03/28 00:56:24;;;;;;;13.45;2.10;;;3.10;99.90;;;;;;5115109;28;20016;-72
2023/03/28 00:58:51;;;;;;;7.60;2.03;;;3.10;99.90;;;;;;5113763;28;20027;-72
2023/03/28 01:01:18;;;;;;;8.88;1.90;;;3.10;99.90;;;;;;5110804;28;20023;-72
2023/03/28 01:03:51;;;;;;;7.38;1.90;;;3.10;99.90;;;;;;5107501;28;20510;-72
2023/03/28 01:06:20;;;;;;;8.48;2.15;;;3.10;99.90;;;;;;5099489;28;20038;-72
2023/03/28 01:08:47;;;;;;;10.50;2.17;;;3.10;99.90;;;;;;5106097;28;20034;-73
2023/03/28 01:11:14;;;;;;;10.80;2.30;;;3.10;99.90;;;;;;5101218;28;20022;-72
2023/03/28 01:13:50;;;;;;;13.93;2.15;;;3.00;99.90;;;;;;5096035;28;20483;-73
2023/03/28 01:16:18;;;;;;;10.00;2.08;;;3.00;99.90;;;;;;5101322;28;20022;-72
2023/03/28 01:18:50;;;;;;;12.90;2.05;;;3.00;99.90;;;;;;5113557;28;20024;-72
2023/03/28 01:21:32;;;;;;;11.18;2.10;;;2.90;99.90;;;;;;5099575;28;20121;-73
2023/03/28 01:24:22;;;;;;;8.57;2.25;;;2.90;99.90;;;;;;5114508;28;20063;-72
2023/03/28 01:27:02;;;;;;;7.47;2.05;;;2.90;99.90;;;;;;5099995;28;20432;-73
2023/03/28 01:29:45;;;;;;;9.73;2.42;;;2.90;99.90;;;;;;5108510;28;20031;-73
2023/03/28 01:32:30;;;;;;;7.65;2.10;;;2.90;99.90;;;;;;5114114;28;20055;-72
2023/03/28 01:35:13;;;;;;;10.88;2.47;;;2.80;99.90;;;;;;5095477;28;20031;-72
2023/03/28 01:38:03;;;;;;;9.68;2.17;;;2.80;99.90;;;;;;5109339;28;20026;-72
2023/03/28 01:40:41;;;;;;;8.02;2.05;;;2.80;99.90;;;;;;5111149;28;20023;-73
2023/03/28 01:43:14;;;;;;;7.20;2.03;;;2.80;99.90;;;;;;5101180;28;20791;-74
2023/03/28 01:46:00;;;;;;;6.15;2.45;;;2.80;99.90;;;;;;5112141;28;20564;-72
2023/03/28 01:48:54;;;;;;;9.88;2.30;;;2.80;99.90;;;;;;5113993;28;20481;-72
2023/03/28 01:52:00;;;;;;;13.68;2.53;;;2.80;99.90;;;;;;5111860;28;20466;-72
2023/03/28 01:54:46;;;;;;;12.77;2.33;;;2.70;99.90;;;;;;5045441;28;20044;-72
2023/03/28 01:57:30;;;;;;;8.27;2.17;;;2.70;99.90;;;;;;5050952;28;20033;-73
2023/03/28 02:00:10;;;;;;;8.35;2.00;;;2.70;99.90;;;;;;5050257;28;20021;-73
2023/03/28 02:02:55;;;;;;;12.05;2.15;;;2.70;99.90;;;;;;5050170;28;20044;-73
2023/03/28 02:05:23;;;;;;;8.52;2.30;;;2.70;99.90;;;;;;5050246;28;20500;-72
2023/03/28 02:07:50;;;;;;;9.43;2.20;;;2.70;99.90;;;;;;5051278;28;20124;-73
2023/03/28 02:10:21;;;;;;;14.50;2.20;;;2.70;99.90;;;;;;5050174;28;20060;-73
2023/03/28 02:12:52;;;;;;;9.60;2.78;;;2.70;99.90;;;;;;5052113;28;20033;-72
2023/03/28 02:15:20;;;;;;;9.45;2.60;;;2.70;99.90;;;;;;5051285;28;20041;-72
2023/03/28 02:17:52;;;;;;;7.22;2.22;;;2.70;99.90;;;;;;5049955;28;20037;-72
2023/03/28 02:20:23;;;;;;;10.73;2.08;;;2.70;99.90;;;;;;5052315;28;20067;-72
2023/03/28 02:23:19;;;;;;;7.93;1.98;;;2.70;99.90;;;;;;5053347;28;20033;-73
2023/03/28 02:25:45;;;;;;;14.98;2.50;;;2.70;99.90;;;;;;5052291;28;20029;-73
2023/03/28 02:28:12;;;;;;;9.02;2.40;;;2.60;99.90;;;;;;5082096;28;20044;-73
2023/03/28 02:30:38;;;;;;;7.65;2.28;;;2.70;99.90;;;;;;5118445;28;20340;-73
2023/03/28 02:33:10;;;;;;;10.02;2.20;;;2.70;99.90;;;;;;5117866;28;20404;-73
2023/03/28 02:36:03;;;;;;;8.85;2.33;;;2.70;99.90;;;;;;5114821;28;20459;-73
2023/03/28 02:38:38;;;;;;;8.95;1.92;;;2.70;99.90;;;;;;5099768;28;20023;-73
2023/03/28 02:41:26;;;;;;;8.65;2.00;;;2.70;99.90;;;;;;5097485;28;20032;-73
2023/03/28 02:44:34;;;;;;;7.05;2.17;;;2.70;99.90;;;;;;5058213;28;20037;-73
2023/03/28 02:47:21;;;;;;;9.98;2.42;;;2.60;99.90;;;;;;5050869;28;20119;-73
2023/03/28 02:49:55;;;;;;;6.63;2.10;;;2.60;99.90;;;;;;5039937;28;20048;-73
2023/03/28 02:52:50;;;;;;;6.33;2.23;;;2.60;99.90;;;;;;5054076;28;20496;-73
2023/03/28 02:55:23;;;;;;;12.13;2.22;;;2.60;99.90;;;;;;5050568;28;20773;-73
2023/03/28 02:58:13;;;;;;;8.95;2.22;;;2.60;99.90;;;;;;5053564;28;20494;-73
2023/03/28 03:00:39;;;;;;;9.15;2.00;;;2.60;99.90;;;;;;5051660;28;20359;-73
2023/03/28 03:03:09;;;;;;;6.55;2.08;;;2.50;99.90;;;;;;5039491;28;20055;-73
2023/03/28 03:05:35;;;;;;;10.10;2.22;;;2.50;99.90;;;;;;5053356;28;20112;-73
2023/03/28 03:08:02;;;;;;;10.43;2.17;;;2.50;99.90;;;;;;5052848;28;20045;-73
2023/03/28 03:10:27;;;;;;;8.88;2.03;;;2.50;99.90;;;;;;5053149;28;20025;-73
2023/03/28 03:12:53;;;;;;;6.25;2.20;;;2.50;99.90;;;;;;5052819;28;20023;-72
2023/03/28 03:15:19;;;;;;;10.80;2.78;;;2.50;99.90;;;;;;5048225;28;20064;-73
2023/03/28 03:17:45;;;;;;;7.18;1.90;;;2.50;99.90;;;;;;5044728;28;20029;-73
2023/03/28 03:20:11;;;;;;;7.03;2.30;;;2.50;99.90;;;;;;5050942;28;20428;-73
2023/03/28 03:22:37;;;;;;;7.47;2.08;;;2.50;99.90;;;;;;5115381;28;20045;-73
2023/03/28 03:25:07;;;;;;;7.53;2.00;;;2.50;99.90;;;;;;5099509;28;20352;-73
2023/03/28 03:27:34;;;;;;;13.00;2.20;;;2.50;99.90;;;;;;5104372;28;20035;-73
2023/03/28 03:30:00;;;;;;;9.68;2.30;;;2.50;99.90;;;;;;5116120;28;20433;-73
2023/03/28 03:32:26;;;;;;;10.82;2.08;;;2.50;99.90;;;;;;5115073;28;20055;-73
2023/03/28 03:34:51;;;;;;;6.28;2.20;;;2.50;99.90;;;;;;5112340;28;20072;-73
2023/03/28 03:37:17;;;;;;;13.95;2.15;;;2.50;99.90;;;;;;5108437;28;20628;-73
2023/03/28 03:39:44;;;;;;;10.95;2.78;;;2.40;99.90;;;;;;5096518;28;20031;-73
2023/03/28 03:42:10;;;;;;;12.35;3.00;;;2.40;99.90;;;;;;5114691;28;20031;-73
2023/03/28 03:44:35;;;;;;;8.95;2.15;;;2.40;99.90;;;;;;5104970;28;20135;-73
2023/03/28 03:47:01;;;;;;;12.73;2.40;;;2.40;99.90;;;;;;5113597;28;20079;-73
2023/03/28 03:49:27;;;;;;;7.70;2.53;;;2.40;99.90;;;;;;5094490;28;20032;-73
2023/03/28 03:51:53;;;;;;;11.70;2.22;;;2.30;99.90;;;;;;5100846;28;20027;-73
2023/03/28 03:54:18;;;;;;;9.55;2.08;;;2.30;99.90;;;;;;5100246;28;20394;-73
2023/03/28 03:56:44;;;;;;;10.15;2.00;;;2.30;99.90;;;;;;5102897;28;20050;-73
2023/03/28 03:59:10;;;;;;;9.20;2.55;;;2.30;99.90;;;;;;5116105;28;20023;-72
2023/03/28 04:01:38;;;;;;;9.75;2.30;;;2.20;99.90;;;;;;5100867;28;20107;-73
2023/03/28 04:04:06;;;;;;;6.00;2.40;;;2.20;99.90;;;;;;5096799;28;20023;-73
2023/03/28 04:06:31;;;;;;;9.20;2.85;;;2.20;99.90;;;;;;5115004;28;20115;-73
2023/03/28 04:08:57;;;;;;;7.70;2.40;;;2.20;99.90;;;;;;5112053;28;20532;-73
2023/03/28 04:11:22;;;;;;;8.00;2.97;;;2.10;99.90;;;;;;5114173;28;20080;-73
2023/03/28 04:13:48;;;;;;;9.93;2.60;;;2.10;99.90;;;;;;5114779;28;20038;-73
2023/03/28 04:16:14;;;;;;;16.35;6.20;;;2.10;99.90;;;;;;5115192;28;20027;-73
2023/03/28 04:18:40;;;;;;;16.10;6.50;;;2.10;99.90;;;;;;5100815;28;20026;-73
2023/03/28 04:21:08;;;;;;;13.07;3.30;;;2.10;99.90;;;;;;5113616;28;20034;-73
2023/03/28 04:23:37;;;;;;;8.57;3.22;;;2.10;99.90;;;;;;5114995;28;20053;-73
2023/03/28 04:26:03;;;;;;;8.32;2.70;;;2.00;99.90;;;;;;5104729;28;20040;-73
2023/03/28 04:28:28;;;;;;;8.82;2.50;;;2.00;99.90;;;;;;5110520;28;20077;-73
2023/03/28 04:30:57;;;;;;;8.73;2.63;;;2.00;99.90;;;;;;5114056;28;20024;-73
2023/03/28 04:33:24;;;;;;;13.35;3.35;;;2.00;99.90;;;;;;5100162;28;20028;-73
2023/03/28 04:35:58;;;;;;;7.53;2.67;;;2.00;99.90;;;;;;5113512;28;20022;-73
2023/03/28 04:38:25;;;;;;;8.27;2.42;;;2.00;99.90;;;;;;5088097;28;20045;-73
2023/03/28 04:40:56;;;;;;;12.15;2.75;;;2.00;99.90;;;;;;5114942;28;20024;-73
2023/03/28 04:43:30;;;;;;;8.60;2.95;;;2.00;99.90;;;;;;5098128;28;20069;-73
2023/03/28 04:45:56;;;;;;;6.93;2.67;;;2.00;99.90;;;;;;5095376;28;20066;-73
2023/03/28 04:48:24;;;;;;;8.65;2.85;;;2.00;99.90;;;;;;5102475;28;20031;-72
2023/03/28 04:50:50;;;;;;;13.60;2.67;;;2.00;99.90;;;;;;5113571;28;20565;-73
2023/03/28 04:53:16;;;;;;;8.38;2.80;;;2.00;99.90;;;;;;5096125;28;20034;-73
2023/03/28 04:55:47;;;;;;;10.75;2.80;;;2.10;99.90;;;;;;5114679;28;20126;-73
2023/03/28 04:58:14;;;;;;;9.43;2.58;;;2.00;99.90;;;;;;5096263;28;20111;-73
2023/03/28 05:00:39;;;;;;;11.15;2.67;;;2.00;99.90;;;;;;5103309;28;20024;-73
2023/03/28 05:03:17;;;;;;;9.95;2.75;;;2.00;99.90;;;;;;5101668;28;20090;-74
2023/03/28 05:05:43;;;;;;;13.32;2.80;;;2.10;99.90;;;;;;5113833;28;20031;-73
2023/03/28 05:08:09;;;;;;;9.85;2.58;;;2.10;99.90;;;;;;5114388;28;20110;-74
2023/03/28 05:10:34;;;;;;;9.95;2.80;;;2.10;99.90;;;;;;5106192;28;20108;-73
2023/03/28 05:13:00;;;;;;;10.05;2.72;;;2.10;99.90;;;;;;5093899;28;20466;-73
2023/03/28 05:15:26;;;;;;;11.32;3.25;;;2.10;99.90;;;;;;5111133;28;20418;-73
2023/03/28 05:17:52;;;;;;;13.07;3.08;;;2.10;99.90;;;;;;5114118;28;20666;-72
2023/03/28 05:20:18;;;;;;;9.60;3.30;;;2.10;99.90;;;;;;5113437;28;20439;-73
2023/03/28 05:22:44;;;;;;;11.70;2.80;;;2.10;99.90;;;;;;5113234;28;20046;-73
2023/03/28 05:25:10;;;;;;;8.15;2.60;;;2.20;99.90;;;;;;5092306;28;20024;-73
2023/03/28 05:27:37;;;;;;;13.38;3.70;;;2.20;99.90;;;;;;5101585;28;20032;-73
2023/03/28 05:30:07;;;;;;;10.80;3.38;;;2.20;99.90;;;;;;5111184;28;20035;-73
2023/03/28 05:32:32;;;;;;;12.38;3.50;;;2.20;99.90;;;;;;5105791;28;20035;-73
2023/03/28 05:34:58;;;;;;;16.58;2.92;;;2.20;99.90;;;;;;5084057;28;20050;-73
2023/03/28 05:37:24;;;;;;;10.82;2.90;;;2.20;99.90;;;;;;5103884;28;20031;-73
2023/03/28 05:39:50;;;;;;;13.52;3.33;;;2.20;99.90;;;;;;5113233;28;20038;-72
2023/03/28 05:42:15;;;;;;;9.20;3.13;;;2.20;99.90;;;;;;5083573;28;20052;-74
2023/03/28 05:44:41;;;;;;;8.70;3.17;;;2.30;99.90;;;;;;5114449;28;20028;-74
2023/03/28 05:47:07;;;;;;;13.98;3.35;;;2.30;99.90;;;;;;5099433;28;20044;-74
2023/03/28 05:49:32;;;;;;;10.15;3.17;;;2.30;99.90;;;;;;5109167;28;20032;-74
2023/03/28 05:51:58;;;;;;;12.60;3.47;;;2.30;99.90;;;;;;5106822;28;20026;-72
2023/03/28 05:54:23;;;;;;;13.10;3.38;;;2.30;99.90;;;;;;5113959;28;20058;-73
2023/03/28 05:56:49;;;;;;;11.85;3.25;;;2.30;99.90;;;;;;5093662;28;20031;-73
2023/03/28 05:59:17;;;;;;;13.50;3.28;;;2.30;99.90;;;;;;5094512;28;20032;-73
2023/03/28 06:01:45;;;;;;;12.95;3.50;;;2.40;99.90;;;;;;5107487;28;20069;-73
2023/03/28 06:04:11;;;;;;;15.27;3.80;;;2.40;99.90;;;;;;5114133;28;20041;-73
2023/03/28 06:06:37;;;;;;;12.43;3.75;;;2.40;99.90;;;;;;5105901;28;20112;-72
2023/03/28 06:09:03;;;;;;;16.77;4.13;;;2.40;99.90;;;;;;5110554;28;20110;-73
2023/03/28 06:11:28;;;;;;;16.83;4.18;;;2.50;99.90;;;;;;5112226;28;20031;-72
2023/03/28 06:13:54;;;;;;;18.45;3.65;;;2.50;99.90;;;;;;5112058;28;20023;-74
2023/03/28 06:16:19;;;;;;;13.90;3.85;;;2.60;99.90;;;;;;5113486;28;20474;-73
2023/03/28 06:18:45;;;;;;;12.02;3.70;;;2.60;99.90;;;;;;5113923;28;20482;-73
2023/03/28 06:21:10;;;;;;;18.15;4.10;;;2.70;99.90;;;;;;5111028;28;20073;-73
2023/03/28 06:23:36;;;;;;;12.45;4.15;;;2.80;99.90;;;;;;5114015;28;20115;-73
2023/03/28 06:26:02;;;;;;;11.50;3.90;;;2.90;99.90;;;;;;5106925;28;20386;-73
2023/03/28 06:28:27;;;;;;;17.08;3.65;;;3.00;99.90;;;;;;5112511;28;20065;-73
2023/03/28 06:30:53;;;;;;;16.38;3.92;;;3.00;99.90;;;;;;5095466;28;20464;-73
2023/03/28 06:33:19;;;;;;;21.83;4.00;;;3.10;99.90;;;;;;5111338;28;20479;-73
2023/03/28 06:35:45;;;;;;;15.93;4.32;;;3.10;99.90;;;;;;5104029;28;20055;-73
2023/03/28 06:38:10;;;;;;;19.42;4.25;;;3.20;99.90;;;;;;5112293;28;20024;-73
2023/03/28 06:40:36;;;;;;;18.08;4.50;;;3.20;99.90;;;;;;5111609;28;20410;-74
2023/03/28 06:43:02;;;;;;;14.48;4.03;;;3.40;99.90;;;;;;5114394;28;20087;-73
2023/03/28 06:45:27;;;;;;;20.33;4.28;;;3.40;99.90;;;;;;5112929;28;20035;-74
2023/03/28 06:47:53;;;;;;;15.77;5.25;;;3.50;99.90;;;;;;5095000;28;20047;-74
2023/03/28 06:50:18;;;;;;;14.75;4.78;;;3.50;99.90;;;;;;5094662;28;20134;-73
2023/03/28 06:52:44;;;;;;;17.00;5.00;;;3.60;99.90;;;;;;5111840;28;20047;-74
2023/03/28 06:55:10;;;;;;;14.60;5.50;;;3.70;99.90;;;;;;5106543;28;20402;-74
2023/03/28 06:57:36;;;;;;;18.20;5.57;;;3.80;99.90;;;;;;5110469;28;20043;-74
2023/03/28 07:00:02;;;;;;;20.80;5.80;;;3.80;99.90;;;;;;5114170;28;20031;-74
2023/03/28 07:02:27;;;;;;;17.30;6.05;;;3.90;99.90;;;;;;5101891;28;20027;-74
2023/03/28 07:04:54;;;;;;;16.42;5.43;;;4.00;99.90;;;;;;5092852;28;20012;-74
2023/03/28 07:07:21;;;;;;;20.35;5.65;;;4.00;99.90;;;;;;5109523;28;20039;-74
2023/03/28 07:09:48;;;;;;;15.20;5.75;;;4.10;99.90;;;;;;5113508;28;20527;-74
2023/03/28 07:12:14;;;;;;;18.30;5.50;;;4.20;99.90;;;;;;5116098;28;20028;-73
2023/03/28 07:14:43;;;;;;;17.15;6.05;;;4.20;99.90;;;;;;5115468;28;20047;-73
2023/03/28 07:17:10;;;;;;;18.83;5.85;;;4.30;99.90;;;;;;5116279;28;20027;-73
2023/03/28 07:19:36;;;;;;;20.67;6.53;;;4.40;99.90;;;;;;5110665;28;20448;-73
2023/03/28 07:22:02;;;;;;;13.05;5.85;;;4.40;99.90;;;;;;5115674;28;20016;-73
2023/03/28 07:24:27;;;;;;;18.92;5.35;;;4.50;99.90;;;;;;5115574;28;20031;-73
2023/03/28 07:26:53;;;;;;;18.50;5.43;;;4.60;99.90;;;;;;5106549;28;20258;-73
2023/03/28 07:29:19;;;;;;;22.02;5.93;;;4.70;99.90;;;;;;5095484;28;20032;-72
2023/03/28 07:31:44;;;;;;;19.73;5.20;;;4.70;99.90;;;;;;5095456;28;20024;-72
2023/03/28 07:34:10;;;;;;;16.10;5.25;;;4.80;99.90;;;;;;5105658;28;20386;-72
2023/03/28 07:36:37;;;;;;;18.23;5.45;;;4.90;99.90;;;;;;5106358;28;20040;-73
2023/03/28 07:39:03;;;;;;;15.63;4.95;;;5.00;99.90;;;;;;5108565;28;20114;-73
2023/03/28 07:41:29;;;;;;;13.68;4.88;;;5.10;99.90;;;;;;5114091;28;20055;-73
2023/03/28 07:43:55;;;;;;;13.18;4.85;;;5.20;99.90;;;;;;5115392;28;20120;-73
2023/03/28 07:46:22;;;;;;;13.30;4.65;;;5.30;99.90;;;;;;5114498;28;20113;-73
2023/03/28 07:48:48;;;;;;;19.55;4.80;;;5.30;99.90;;;;;;5114768;28;20073;-72
2023/03/28 07:51:14;;;;;;;16.40;4.53;;;5.40;99.90;;;;;;5114308;28;20023;-72
2023/03/28 07:53:40;;;;;;;15.35;4.38;;;5.50;99.90;;;;;;5106909;28;20424;-73
2023/03/28 07:56:11;;;;;;;13.95;4.18;;;5.60;99.90;;;;;;5112969;28;20047;-72
2023/03/28 07:58:38;;;;;;;10.88;3.70;;;5.70;99.90;;;;;;5109082;28;20464;-73
2023/03/28 08:01:06;;;;;;;15.45;4.22;;;5.70;99.90;;;;;;5105852;28;20081;-73
2023/03/28 08:03:31;;;;;;;11.40;3.88;;;5.80;99.90;;;;;;5082229;28;20038;-73
2023/03/28 08:06:01;;;;;;;11.45;3.78;;;5.80;99.90;;;;;;5099043;28;20111;-73
2023/03/28 08:08:27;;;;;;;14.07;3.67;;;5.90;99.90;;;;;;5108868;28;20137;-73
2023/03/28 08:10:52;;;;;;;12.07;3.63;;;6.00;99.90;;;;;;5108769;28;20033;-73
2023/03/28 08:13:19;;;;;;;6.30;2.80;;;6.00;99.90;;;;;;5113610;28;20390;-73
2023/03/28 08:15:49;;;;;;;11.32;3.40;;;6.00;99.90;;;;;;5103723;28;20063;-73
2023/03/28 08:18:19;;;;;;;12.52;3.80;;;6.10;99.90;;;;;;5107200;28;20425;-73
2023/03/28 08:20:46;;;;;;;14.48;3.70;;;6.10;99.90;;;;;;5096769;28;20360;-73
2023/03/28 08:23:12;;;;;;;17.35;3.83;;;6.10;99.90;;;;;;5099144;28;20374;-73
2023/03/28 08:25:38;;;;;;;13.23;4.18;;;6.20;99.90;;;;;;5095362;28;20099;-73
2023/03/28 08:28:03;;;;;;;11.52;3.75;;;6.20;99.90;;;;;;5109395;28;20031;-73
2023/03/28 08:30:29;;;;;;;11.70;3.50;;;6.30;99.90;;;;;;5102575;28;20020;-73
2023/03/28 08:32:55;;;;;;;12.27;3.80;;;6.30;99.90;;;;;;5114051;28;20016;-73
2023/03/28 08:35:20;;;;;;;8.25;3.22;;;6.30;99.90;;;;;;5106170;28;20394;-73
2023/03/28 08:37:46;;;;;;;12.13;3.42;;;6.30;99.90;;;;;;5113869;28;20456;-72
2023/03/28 08:40:17;;;;;;;9.32;3.45;;;6.40;99.90;;;;;;5110675;28;20077;-73
2023/03/28 08:43:07;;;;;;;12.38;4.20;;;6.50;99.90;;;;;;5105321;28;20025;-72
2023/03/28 08:45:45;;;;;;;16.38;5.00;;;6.50;99.90;;;;;;5113415;28;20262;-72
2023/03/28 08:48:11;;;;;;;13.30;4.88;;;6.50;99.90;;;;;;5094247;28;20038;-73
2023/03/28 08:50:48;;;;;;;11.18;4.90;;;6.50;99.90;;;;;;5111987;28;20102;-72
2023/03/28 08:53:25;;;;;;;14.15;4.88;;;6.50;99.90;;;;;;5095975;28;20024;-73
2023/03/28 08:55:53;;;;;;;15.25;4.28;;;6.60;99.90;;;;;;5114435;28;20057;-73
2023/03/28 08:58:22;;;;;;;10.55;3.95;;;6.60;99.90;;;;;;5114842;28;20071;-73
2023/03/28 09:00:49;;;;;;;13.75;3.80;;;6.70;99.90;;;;;;5100830;28;20031;-73
2023/03/28 09:03:21;;;;;;;13.57;4.70;;;6.70;99.90;;;;;;5112587;28;20050;-74
2023/03/28 09:06:18;;;;;;;11.93;4.10;;;6.80;99.90;;;;;;5113366;28;20511;-74
2023/03/28 09:08:52;;;;;;;11.55;4.13;;;6.80;99.90;;;;;;5112579;28;20070;-73
2023/03/28 09:11:57;;;;;;;10.82;3.90;;;6.90;99.90;;;;;;5108986;28;20417;-74
2023/03/28 09:14:31;;;;;;;13.10;4.05;;;6.90;99.90;;;;;;5106262;28;20019;-74
2023/03/28 09:17:06;;;;;;;8.57;2.83;;;6.90;99.90;;;;;;5100078;28;20485;-74
2023/03/28 09:19:38;;;;;;;9.32;3.55;;;7.00;99.90;;;;;;5113863;28;20032;-74
2023/03/28 09:22:19;;;;;;;11.43;3.60;;;7.10;99.90;;;;;;5109396;28;20081;-74
2023/03/28 09:24:54;;;;;;;7.78;3.25;;;7.10;99.90;;;;;;5108264;28;20039;-74
2023/03/28 09:27:27;;;;;;;10.25;3.30;;;7.20;99.90;;;;;;5106762;28;20024;-74
2023/03/28 09:30:02;;;;;;;14.50;3.72;;;7.30;99.90;;;;;;5101872;28;20089;-73
2023/03/28 09:32:36;;;;;;;8.82;3.33;;;7.30;99.90;;;;;;5094392;28;20558;-73
2023/03/28 09:35:09;;;;;;;11.27;3.47;;;7.30;99.90;;;;;;5093939;28;20451;-72
2023/03/28 09:37:41;;;;;;;12.45;3.28;;;7.30;99.90;;;;;;5094233;28;20024;-73
2023/03/28 09:40:21;;;;;;;8.00;2.78;;;7.40;99.90;;;;;;5104948;28;20419;-73
2023/03/28 09:43:15;;;;;;;8.18;3.10;;;7.40;99.90;;;;;;5107194;28;20073;-73
2023/03/28 09:46:01;;;;;;;11.38;3.35;;;7.30;99.90;;;;;;5106696;28;20462;-73
2023/03/28 09:48:36;;;;;;;9.00;2.80;;;7.30;99.90;;;;;;5106836;28;20042;-73
2023/03/28 09:51:05;;;;;;;9.05;2.63;;;7.30;99.90;;;;;;5112546;28;20180;-74
2023/03/28 09:53:33;;;;;;;8.57;2.80;;;7.30;99.90;;;;;;5111727;28;20024;-73
2023/03/28 09:56:06;;;;;;;9.13;2.78;;;7.40;99.90;;;;;;5103884;28;20020;-73
2023/03/28 09:59:01;;;;;;;7.90;2.70;;;7.40;99.90;;;;;;5096624;28;20027;-73
2023/03/28 10:01:46;;;;;;;10.85;3.10;;;7.40;99.90;;;;;;5108474;28;20028;-73
2023/03/28 10:04:13;;;;;;;;;;;7.40;99.90;;;;;;5113292;28;20023;-73
2023/03/28 10:06:40;;;;;;;5.00;1.90;;;7.30;99.90;;;;;;5111459;28;19904;-73
2023/03/28 10:09:12;;;;;;;8.15;2.30;;;7.20;99.90;;;;;;5108536;28;20441;-72
2023/03/28 10:11:53;;;;;;;9.95;2.53;;;7.30;99.90;;;;;;5111061;28;20024;-72
2023/03/28 10:14:28;;;;;;;9.25;2.20;;;7.40;99.90;;;;;;5111808;28;20072;-73
2023/03/28 10:16:53;;;;;;;8.23;2.25;;;7.30;99.90;;;;;;5108993;28;20371;-73
2023/03/28 10:19:32;;;;;;;5.85;1.92;;;7.30;99.90;;;;;;5089743;28;20063;-73
2023/03/28 10:22:06;;;;;;;5.38;2.00;;;7.40;99.90;;;;;;5104648;28;20024;-73
2023/03/28 10:24:32;;;;;;;6.85;1.90;;;7.40;99.90;;;;;;5112735;28;20046;-73
2023/03/28 10:27:16;;;;;;;10.00;2.17;;;7.50;99.90;;;;;;5111536;28;20042;-73
2023/03/28 10:29:43;;;;;;;5.25;2.10;;;7.60;99.90;;;;;;5107637;28;20393;-73
2023/03/28 10:32:21;;;;;;;9.90;2.63;;;7.70;99.90;;;;;;5111081;28;20058;-73
2023/03/28 10:34:58;;;;;;;6.32;2.13;;;7.80;99.90;;;;;;5097408;28;20032;-73
2023/03/28 10:37:31;;;;;;;7.30;2.40;;;7.80;99.90;;;;;;5094060;28;20028;-73
2023/03/28 10:40:04;;;;;;;9.02;2.20;;;7.90;99.90;;;;;;5111033;28;20106;-73
2023/03/28 10:42:39;;;;;;;4.03;1.67;;;7.90;99.90;;;;;;5102552;28;20528;-73
2023/03/28 10:45:05;;;;;;;6.38;1.80;;;8.00;99.30;;;;;;5113929;28;20438;-73
2023/03/28 10:47:31;;;;;;;4.97;2.25;;;8.00;98.80;;;;;;5101697;28;20094;-74
2023/03/28 10:49:58;;;;;;;8.02;2.70;;;8.00;98.70;;;;;;5117024;28;20073;-73
2023/03/28 10:53:00;;;;;;;8.40;3.10;;;8.00;99.00;;;;;;5117278;28;20076;-73
2023/03/28 10:56:12;;;;;;;8.52;2.90;;;8.00;99.70;;;;;;5116338;28;20073;-74
2023/03/28 10:58:45;;;;;;;8.68;3.15;;;8.00;99.90;;;;;;5016643;28;20441;-74
2023/03/28 11:01:23;;;;;;;8.75;3.13;;;8.00;99.90;;;;;;5033215;28;20411;-73
2023/03/28 11:04:15;;;;;;;7.97;3.40;;;7.90;99.90;;;;;;5032077;28;20047;-73
2023/03/28 11:06:44;;;;;;;12.35;3.78;;;8.00;99.40;;;;;;5029954;28;20477;-73
2023/03/28 11:09:45;;;;;;;13.20;3.67;;;7.90;99.90;;;;;;5032736;28;20542;-72
2023/03/28 11:12:39;;;;;;;11.40;4.18;;;7.90;99.90;;;;;;5031696;28;20038;-73
2023/03/28 11:15:24;;;;;;;9.95;4.40;;;7.90;99.90;;;;;;5023100;28;20049;-73
2023/03/28 11:17:55;;;;;;;10.85;4.57;;;8.00;99.90;;;;;;5024290;28;20490;-74
2023/03/28 11:20:39;;;;;;;13.20;4.82;;;8.00;99.90;;;;;;5031247;28;20034;-73
2023/03/28 11:23:19;;;;;;;13.10;4.88;;;7.90;99.90;;;;;;5032099;28;20109;-74
2023/03/28 11:26:12;;;;;;;11.95;4.80;;;7.90;99.90;;;;;;5031485;28;20025;-74
2023/03/28 11:28:57;;;;;;;16.73;4.93;;;7.90;99.90;;;;;;5029219;28;20128;-74
2023/03/28 11:31:24;;;;;;;;;;;7.90;99.90;;;;;;5030430;28;20065;-73
2023/03/28 11:33:59;;;;;;;13.98;5.22;;;7.90;99.90;;;;;;5054952;28;20045;-74
2023/03/28 11:36:46;;;;;;;23.63;6.70;;;7.90;99.90;;;;;;5112228;28;20115;-73
2023/03/28 11:39:39;;;;;;;15.85;4.85;;;8.00;99.90;;;;;;5105107;28;20067;-73
2023/03/28 11:42:12;;;;;;;11.95;5.68;;;8.10;99.90;;;;;;5098604;28;20020;-73
2023/03/28 11:45:01;;;;;;;14.77;6.18;;;8.30;99.90;;;;;;5106824;28;20085;-73
2023/03/28 11:47:45;;;;;;;15.55;6.13;;;8.40;99.90;;;;;;5111673;28;20113;-73
2023/03/28 11:50:43;;;;;;;14.68;5.38;;;8.50;99.90;;;;;;5105488;28;20482;-73
2023/03/28 11:53:15;;;;;;;16.33;5.30;;;8.70;99.90;;;;;;5111999;28;20022;-73
2023/03/28 11:55:56;;;;;;;13.05;5.00;;;8.80;99.90;;;;;;5113999;28;20035;-72
2023/03/28 11:58:25;;;;;;;11.93;5.00;;;8.90;99.90;;;;;;5113795;28;20023;-73
2023/03/28 12:01:16;;;;;;;16.13;4.70;;;9.10;99.90;;;;;;5114070;28;20046;-73
2023/03/28 12:03:57;;;;;;;10.63;3.83;;;9.20;99.90;;;;;;5101968;28;20027;-74
2023/03/28 12:06:29;;;;;;;14.38;4.10;;;9.40;99.90;;;;;;5113711;28;20355;-73
2023/03/28 12:09:06;;;;;;;9.20;3.33;;;9.60;99.90;;;;;;5114433;28;20111;-73
2023/03/28 12:11:46;;;;;;;10.38;2.63;;;9.70;99.90;;;;;;5098704;28;20070;-73
2023/03/28 12:14:31;;;;;;;11.85;3.35;;;9.70;97.50;;;;;;5113338;28;20382;-73
2023/03/28 12:16:57;;;;;;;7.20;2.72;;;9.80;96.10;;;;;;5113217;28;20053;-73
2023/03/28 12:19:39;;;;;;;7.38;2.60;;;9.70;94.10;;;;;;5110221;28;20080;-73
2023/03/28 12:22:19;;;;;;;6.55;2.67;;;9.70;93.00;;;;;;5112453;28;20024;-73
2023/03/28 12:24:53;;;;;;;6.97;2.40;;;9.60;94.00;;;;;;5113649;28;20024;-73
2023/03/28 12:27:42;;;;;;;11.07;2.60;;;9.70;92.90;;;;;;5112505;28;20049;-73
2023/03/28 12:30:34;;;;;;;7.57;2.25;;;9.60;92.50;;;;;;5100019;28;20274;-74
2023/03/28 12:33:23;;;;;;;7.53;2.90;;;9.60;93.90;;;;;;5061049;28;20071;-74
2023/03/28 12:35:55;;;;;;;7.90;2.65;;;9.60;93.80;;;;;;5112834;28;20038;-73
2023/03/28 12:38:32;;;;;;;9.82;2.55;;;9.60;93.90;;;;;;5098730;28;20081;-74
2023/03/28 12:41:00;;;;;;;7.88;2.65;;;9.50;93.90;;;;;;5112470;28;20110;-74
2023/03/28 12:43:39;;;;;;;8.10;2.92;;;9.60;94.70;;;;;;5113239;28;20486;-74
2023/03/28 12:46:07;;;;;;;10.27;3.10;;;9.60;95.10;;;;;;5103860;28;20253;-73
2023/03/28 12:48:48;;;;;;;9.85;2.92;;;9.70;94.90;;;;;;5113866;28;20023;-73
2023/03/28 12:51:24;;;;;;;7.75;2.75;;;9.70;95.20;;;;;;5100079;28;20028;-73
2023/03/28 12:54:00;;;;;;;7.13;2.90;;;9.70;94.70;;;;;;5112610;28;20024;-73
2023/03/28 12:56:26;;;;;;;9.07;2.85;;;9.70;95.60;;;;;;5108333;28;20423;-74
2023/03/28 12:58:52;;;;;;;6.75;2.88;;;9.70;96.90;;;;;;5110610;28;20038;-74
2023/03/28 13:01:34;;;;;;;7.10;2.53;;;9.80;96.80;;;;;;5109713;28;20027;-73
2023/03/28 13:04:10;;;;;;;7.18;2.63;;;9.90;96.50;;;;;;5079950;28;20024;-73
2023/03/28 13:06:39;;;;;;;13.68;2.90;;;10.00;96.30;;;;;;5096329;28;20039;-74
2023/03/28 13:09:23;;;;;;;8.68;3.20;;;10.00;97.00;;;;;;5104336;28;20103;-74
2023/03/28 13:11:58;;;;;;;11.30;3.45;;;10.00;96.60;;;;;;5096178;28;20034;-74
2023/03/28 13:14:33;;;;;;;9.43;3.05;;;10.00;97.10;;;;;;5105804;28;20413;-74
2023/03/28 13:17:15;;;;;;;7.50;3.00;;;9.90;97.50;;;;;;5108318;28;20034;-74
2023/03/28 13:19:44;;;;;;;8.43;2.92;;;9.90;97.20;;;;;;5106346;28;20556;-74